Walden, Minnesota
Current Conditions -  °F | °C
As of 6:14 PM on Friday 24 Oct 2014 (Local Time) from KPWC Reporting Station
Clear Clear  
Wind Chill: 64°   Ceiling: Unl
Heat Index: 64°   Visibility: 10mi
Dew Point: 43°   Wind: 6mph
Humidity: 45%   Direction: 240°WSW
Pressure: 29.83"   Gusts: NA
Location:  46.6535°N, 94.5389°W
Report Text: KPWC 242314Z AUTO 24005KT 10SM CLR 18/06 A2983 RMK AO2
Loading
Personal Weather Stations






























Interactive Weather Map
Tropical Storm Tracking
New forecast layout! Learn more

10-Day Weather Forecast

Advertisements
Track Severe Weather on mobile